createdAt,value
2022-09-13T00:00:12.494Z,15.72
2022-09-13T00:00:47.477Z,15.72
2022-09-13T00:01:18.864Z,15.77
2022-09-13T00:01:50.967Z,15.77
2022-09-13T00:02:22.848Z,15.77
2022-09-13T00:02:55.659Z,15.77
2022-09-13T00:03:27.064Z,15.77
2022-09-13T00:03:49.432Z,15.77
2022-09-13T00:04:13.573Z,15.77
2022-09-13T00:04:48.562Z,15.77
2022-09-13T00:05:19.300Z,15.77
2022-09-13T00:05:51.056Z,15.77
2022-09-13T00:06:23.338Z,15.88
2022-09-13T00:06:55.034Z,15.88
2022-09-13T00:07:27.306Z,15.77
2022-09-13T00:07:50.063Z,15.77
2022-09-13T00:08:12.452Z,15.77
2022-09-13T00:08:46.903Z,15.77
2022-09-13T00:09:18.750Z,15.88
2022-09-13T00:09:50.729Z,15.88
2022-09-13T00:10:22.946Z,15.88
2022-09-13T00:10:54.865Z,15.88
2022-09-13T00:11:27.475Z,15.88
2022-09-13T00:11:49.522Z,15.88
2022-09-13T00:12:12.335Z,15.88
2022-09-13T00:12:47.388Z,15.88
2022-09-13T00:13:19.401Z,15.88
2022-09-13T00:13:51.233Z,15.88
2022-09-13T00:14:24.645Z,15.88
2022-09-13T00:14:56.715Z,15.88
2022-09-13T00:15:28.100Z,15.88
2022-09-13T00:15:50.058Z,15.88
2022-09-13T00:16:12.401Z,15.88
2022-09-13T00:16:46.858Z,15.88
2022-09-13T00:17:18.583Z,15.88
2022-09-13T00:17:50.722Z,15.88
2022-09-13T00:18:22.716Z,15.88
2022-09-13T00:18:55.738Z,16.00
2022-09-13T00:19:28.456Z,16.00
2022-09-13T00:19:49.333Z,16.00
2022-09-13T00:20:12.014Z,16.00
2022-09-13T00:20:46.705Z,16.11
2022-09-13T00:21:18.777Z,16.22
2022-09-13T00:21:51.149Z,16.22
2022-09-13T00:22:23.250Z,16.27
2022-09-13T00:22:55.236Z,16.27
2022-09-13T00:23:29.290Z,16.38
2022-09-13T00:23:49.506Z,16.38
2022-09-13T00:24:11.851Z,16.38
2022-09-13T00:24:47.348Z,16.38
2022-09-13T00:25:18.707Z,16.38
2022-09-13T00:25:50.828Z,16.38
2022-09-13T00:26:22.939Z,16.38
2022-09-13T00:26:55.028Z,16.38
2022-09-13T00:27:26.632Z,16.38
2022-09-13T00:27:49.256Z,16.38
2022-09-13T00:28:11.866Z,16.38
2022-09-13T00:28:46.765Z,16.38
2022-09-13T00:29:18.766Z,16.38
2022-09-13T00:29:51.136Z,16.38
2022-09-13T00:30:24.146Z,16.38
2022-09-13T00:30:55.449Z,16.38
2022-09-13T00:31:26.896Z,16.38
2022-09-13T00:31:49.650Z,16.38
2022-09-13T00:32:11.889Z,16.38
2022-09-13T00:32:47.422Z,16.38
2022-09-13T00:33:19.147Z,16.38
2022-09-13T00:33:50.934Z,16.38
2022-09-13T00:34:23.722Z,16.38
2022-09-13T00:34:54.912Z,16.38
2022-09-13T00:35:26.768Z,16.38
2022-09-13T00:35:49.379Z,16.38
2022-09-13T00:36:12.797Z,16.38
2022-09-13T00:36:46.800Z,16.38
2022-09-13T00:37:18.780Z,16.38
2022-09-13T00:37:51.209Z,16.38
2022-09-13T00:38:22.935Z,16.38
2022-09-13T00:38:54.668Z,16.38
2022-09-13T00:39:27.519Z,16.38
2022-09-13T00:39:50.408Z,16.38
2022-09-13T00:40:14.958Z,16.38
2022-09-13T00:40:46.751Z,16.38
2022-09-13T00:41:20.138Z,16.50
2022-09-13T00:41:51.129Z,16.50
2022-09-13T00:42:24.170Z,16.50
2022-09-13T00:42:54.842Z,16.61
2022-09-13T00:45:51.030Z,16.61
2022-09-13T00:46:22.679Z,16.72
2022-09-13T00:46:54.802Z,16.72
2022-09-13T00:47:27.556Z,16.72
2022-09-13T00:47:50.152Z,16.72
2022-09-13T00:48:12.381Z,16.72
2022-09-13T00:48:46.727Z,16.72
2022-09-13T00:49:18.687Z,16.72
2022-09-13T00:49:51.560Z,16.72
2022-09-13T00:50:22.760Z,16.72
2022-09-13T00:50:55.021Z,16.72
2022-09-13T00:51:26.782Z,16.72
2022-09-13T00:51:49.501Z,16.72
2022-09-13T00:52:13.576Z,16.72
2022-09-13T00:52:46.905Z,16.72
2022-09-13T00:53:18.754Z,16.72
2022-09-13T00:53:50.908Z,16.61
2022-09-13T00:54:22.777Z,16.61
2022-09-13T00:54:54.744Z,16.61
2022-09-13T00:55:26.921Z,16.61
2022-09-13T00:55:49.634Z,16.61
2022-09-13T00:56:11.935Z,16.61
2022-09-13T00:56:47.079Z,16.61
2022-09-13T00:57:18.775Z,16.61
2022-09-13T00:57:51.554Z,16.61
2022-09-13T00:58:22.724Z,16.72
2022-09-13T00:58:54.675Z,16.72
2022-09-13T00:59:26.811Z,16.72
2022-09-13T00:59:49.512Z,16.72
2022-09-13T01:00:12.259Z,16.72
2022-09-13T01:00:46.872Z,16.72
2022-09-13T01:01:18.804Z,16.72
2022-09-13T01:01:50.603Z,16.72
2022-09-13T01:02:23.089Z,16.72
2022-09-13T01:02:54.651Z,16.72
2022-09-13T01:03:27.725Z,16.72
2022-09-13T01:03:50.654Z,16.72
2022-09-13T01:04:13.207Z,16.72
2022-09-13T01:04:47.609Z,16.61
2022-09-13T01:05:18.905Z,16.61
2022-09-13T01:05:50.782Z,16.61
2022-09-13T01:06:22.667Z,16.61
2022-09-13T01:06:55.701Z,16.61
2022-09-13T01:07:27.359Z,16.61
2022-09-13T01:07:49.983Z,16.61
2022-09-13T01:08:12.476Z,16.61
2022-09-13T01:08:46.824Z,16.61
2022-09-13T01:09:18.951Z,16.61
2022-09-13T01:09:50.669Z,16.61
2022-09-13T01:10:23.097Z,16.61
2022-09-13T01:10:54.975Z,16.61
2022-09-13T01:11:27.247Z,16.61
2022-09-13T01:11:49.837Z,16.61
2022-09-13T01:12:12.374Z,16.61
2022-09-13T01:12:47.477Z,16.61
2022-09-13T01:13:19.251Z,16.61
2022-09-13T01:13:50.959Z,16.50
2022-09-13T01:14:22.654Z,16.50
2022-09-13T01:14:56.275Z,16.50
2022-09-13T01:15:26.854Z,16.50
2022-09-13T01:15:49.443Z,16.50
2022-09-13T01:16:12.295Z,16.50
2022-09-13T01:16:47.974Z,16.50
2022-09-13T01:17:18.663Z,16.50
2022-09-13T01:17:50.523Z,16.50
2022-09-13T01:18:22.691Z,16.50
2022-09-13T01:18:55.293Z,16.50
2022-09-13T01:19:28.264Z,16.50
2022-09-13T01:19:49.442Z,16.61
2022-09-13T01:20:12.379Z,16.61
2022-09-13T01:20:47.299Z,16.61
2022-09-13T01:21:18.635Z,16.61
2022-09-13T01:21:50.760Z,16.61
2022-09-13T01:22:22.642Z,16.61
2022-09-13T01:22:54.678Z,16.61
2022-09-13T01:23:26.637Z,16.61
2022-09-13T01:23:49.509Z,16.61
2022-09-13T01:24:11.747Z,16.72
2022-09-13T01:24:46.706Z,16.72
2022-09-13T01:25:18.787Z,16.72
2022-09-13T01:25:51.272Z,16.72
2022-09-13T01:26:23.251Z,16.72
2022-09-13T01:26:56.159Z,16.77
2022-09-13T01:27:27.090Z,16.77
2022-09-13T01:27:49.974Z,16.77
2022-09-13T01:28:12.254Z,16.77
2022-09-13T01:28:47.186Z,16.77
2022-09-13T01:29:18.734Z,16.77
2022-09-13T01:29:50.721Z,16.77
2022-09-13T01:30:22.773Z,16.77
2022-09-13T01:30:54.708Z,16.77
2022-09-13T01:31:26.901Z,16.77
2022-09-13T01:31:49.807Z,16.77
2022-09-13T01:32:12.445Z,16.77
2022-09-13T01:32:46.629Z,16.77
2022-09-13T01:33:19.063Z,16.77
2022-09-13T01:33:50.711Z,16.77
2022-09-13T01:34:22.827Z,16.77
2022-09-13T01:34:54.780Z,16.77
2022-09-13T01:35:27.452Z,16.77
2022-09-13T01:35:50.030Z,16.77
2022-09-13T01:36:12.787Z,16.77
2022-09-13T01:36:54.737Z,16.77
2022-09-13T01:37:17.180Z,16.77
2022-09-13T01:37:51.187Z,16.77
2022-09-13T01:38:23.024Z,16.77
2022-09-13T01:38:55.042Z,16.88
2022-09-13T01:39:26.676Z,16.88
2022-09-13T01:39:49.411Z,16.88
2022-09-13T01:40:17.505Z,16.88
2022-09-13T01:40:46.811Z,16.88
2022-09-13T01:41:20.405Z,16.88
2022-09-13T01:41:50.654Z,16.88
2022-09-13T01:42:23.438Z,16.88
2022-09-13T01:42:54.643Z,16.88
2022-09-13T01:43:27.264Z,16.88
2022-09-13T01:43:49.866Z,16.88
2022-09-13T01:44:12.263Z,16.88
2022-09-13T01:44:46.592Z,16.88
2022-09-13T01:45:18.737Z,16.88
2022-09-13T01:45:50.942Z,16.88
2022-09-13T01:46:22.492Z,16.88
2022-09-13T01:46:54.752Z,16.88
2022-09-13T01:47:26.801Z,16.88
2022-09-13T01:47:49.524Z,17.00
2022-09-13T01:48:12.667Z,17.00
2022-09-13T01:48:46.995Z,17.00
2022-09-13T01:49:19.604Z,17.00
2022-09-13T01:49:50.789Z,17.00
2022-09-13T01:50:23.072Z,17.00
2022-09-13T01:50:54.679Z,17.00
2022-09-13T01:51:26.716Z,17.00
2022-09-13T01:51:49.411Z,17.00
2022-09-13T01:52:11.978Z,16.88
2022-09-13T01:52:46.711Z,16.88
2022-09-13T01:53:18.970Z,16.88
2022-09-13T01:53:50.583Z,16.88
2022-09-13T01:54:22.611Z,16.88
2022-09-13T01:54:55.119Z,16.88
2022-09-13T01:55:26.953Z,16.88
2022-09-13T01:55:49.381Z,16.88
2022-09-13T01:56:11.861Z,16.88
2022-09-13T01:56:46.874Z,16.88
2022-09-13T01:57:18.733Z,17.00
2022-09-13T01:57:50.805Z,17.00
2022-09-13T01:58:22.663Z,17.00
2022-09-13T01:58:54.655Z,17.00
2022-09-13T01:59:26.962Z,17.00
2022-09-13T01:59:49.903Z,17.00
2022-09-13T02:00:15.513Z,17.11
2022-09-13T02:00:47.514Z,17.11
2022-09-13T02:01:18.652Z,17.11
2022-09-13T02:01:53.817Z,17.11
2022-09-13T02:02:23.123Z,17.11
2022-09-13T02:02:55.156Z,17.11
2022-09-13T02:03:26.750Z,17.11
2022-09-13T02:03:49.556Z,17.11
2022-09-13T02:04:13.330Z,17.11
2022-09-13T02:04:47.026Z,17.22
2022-09-13T02:05:19.119Z,17.22
2022-09-13T02:05:50.622Z,17.22
2022-09-13T02:06:24.246Z,17.22
2022-09-13T02:06:54.692Z,17.22
2022-09-13T02:07:26.785Z,17.27
2022-09-13T02:07:49.536Z,17.27
2022-09-13T02:08:11.905Z,17.27
2022-09-13T02:08:46.691Z,17.38
2022-09-13T02:09:21.439Z,17.38
2022-09-13T02:09:50.449Z,17.38
2022-09-13T02:10:22.633Z,17.38
2022-09-13T02:10:54.924Z,17.38
2022-09-13T02:11:26.886Z,17.38
2022-09-13T02:11:49.536Z,17.38
2022-09-13T02:12:12.707Z,17.38
2022-09-13T02:12:46.780Z,17.38
2022-09-13T02:13:18.915Z,17.38
2022-09-13T02:13:50.922Z,17.50
2022-09-13T02:14:22.869Z,17.50
2022-09-13T02:14:54.589Z,17.50
2022-09-13T02:15:27.118Z,17.50
2022-09-13T02:15:49.754Z,17.50
2022-09-13T02:16:12.287Z,17.38
2022-09-13T02:16:47.451Z,17.38
2022-09-13T02:17:24.392Z,17.38
2022-09-13T02:17:50.700Z,17.38
2022-09-13T02:18:22.974Z,17.38
2022-09-13T02:18:55.002Z,17.38
2022-09-13T02:19:27.458Z,17.38
2022-09-13T02:19:50.096Z,17.27
2022-09-13T02:20:12.788Z,17.27
2022-09-13T02:20:46.593Z,17.27
2022-09-13T02:21:18.692Z,17.27
2022-09-13T02:21:50.468Z,17.27
2022-09-13T02:22:22.885Z,17.27
2022-09-13T02:22:54.454Z,17.27
2022-09-13T02:23:26.596Z,17.27
2022-09-13T02:23:49.483Z,17.27
2022-09-13T02:24:11.750Z,17.27
2022-09-13T02:24:47.098Z,17.27
2022-09-13T02:25:18.580Z,17.27
2022-09-13T02:25:51.294Z,17.27
2022-09-13T02:26:23.216Z,17.27
2022-09-13T02:26:54.741Z,17.27
2022-09-13T02:27:26.782Z,17.27
2022-09-13T02:27:49.374Z,17.27
2022-09-13T02:28:11.949Z,17.27
2022-09-13T02:28:46.754Z,17.27
2022-09-13T02:29:19.201Z,17.27
2022-09-13T02:29:50.799Z,17.27
2022-09-13T02:30:22.563Z,17.22
2022-09-13T02:30:54.548Z,17.22
2022-09-13T02:31:26.859Z,17.22
2022-09-13T02:31:49.452Z,17.22
2022-09-13T02:32:12.405Z,17.22
2022-09-13T02:32:46.870Z,17.22
2022-09-13T02:33:18.891Z,17.22
2022-09-13T02:33:51.517Z,17.22
2022-09-13T02:34:22.912Z,17.22
2022-09-13T02:34:54.919Z,17.22
2022-09-13T02:35:26.590Z,17.22
2022-09-13T02:35:49.340Z,17.22
2022-09-13T02:36:12.528Z,17.11
2022-09-13T02:36:47.330Z,17.11
2022-09-13T02:37:18.903Z,17.11
2022-09-13T02:37:53.168Z,17.11
2022-09-13T02:38:22.885Z,17.11
2022-09-13T02:38:54.556Z,17.11
2022-09-13T02:39:26.944Z,17.11
2022-09-13T02:39:50.024Z,17.11
2022-09-13T02:40:12.706Z,17.11
2022-09-13T02:40:48.584Z,17.11
2022-09-13T02:41:20.638Z,17.11
2022-09-13T02:41:50.855Z,17.11
2022-09-13T02:42:24.079Z,17.11
2022-09-13T02:42:55.101Z,17.11
2022-09-13T02:43:26.942Z,17.11
2022-09-13T02:43:49.646Z,17.11
2022-09-13T02:44:12.485Z,17.11
2022-09-13T02:44:48.434Z,17.11
2022-09-13T02:45:18.716Z,17.11
2022-09-13T02:45:50.564Z,17.11
2022-09-13T02:46:22.605Z,17.11
2022-09-13T02:46:54.518Z,17.11
2022-09-13T02:47:26.783Z,17.11
2022-09-13T02:47:49.415Z,17.11
2022-09-13T02:48:11.900Z,17.11
2022-09-13T02:48:49.236Z,17.11
2022-09-13T02:49:18.545Z,17.11
2022-09-13T02:49:50.932Z,17.11
2022-09-13T02:50:22.539Z,17.11
2022-09-13T02:50:54.586Z,17.11
2022-09-13T02:51:26.548Z,17.11
2022-09-13T02:51:49.461Z,17.11
2022-09-13T02:52:11.651Z,17.11
2022-09-13T02:52:46.598Z,17.11
2022-09-13T02:53:18.584Z,17.11
2022-09-13T02:53:50.390Z,17.11
2022-09-13T02:54:23.092Z,17.11
2022-09-13T02:54:54.821Z,17.11
2022-09-13T02:55:27.508Z,17.00
2022-09-13T02:55:50.120Z,17.00
2022-09-13T02:56:13.007Z,17.00
2022-09-13T02:56:47.297Z,17.00
2022-09-13T02:57:20.058Z,17.00
2022-09-13T02:57:50.738Z,17.00
2022-09-13T02:58:27.038Z,17.00
2022-09-13T02:58:54.679Z,17.00
2022-09-13T02:59:26.555Z,17.00
2022-09-13T02:59:50.752Z,17.00
2022-09-13T03:00:13.044Z,16.88
2022-09-13T03:00:46.635Z,16.88
2022-09-13T03:01:18.715Z,16.88
2022-09-13T03:01:51.129Z,16.88
2022-09-13T03:02:22.565Z,16.88
2022-09-13T03:02:54.538Z,16.88
2022-09-13T03:03:27.163Z,16.88
2022-09-13T03:03:51.389Z,17.00
2022-09-13T03:04:12.658Z,17.00
2022-09-13T03:04:47.367Z,17.00
2022-09-13T03:05:18.550Z,17.00
2022-09-13T03:05:51.388Z,16.88
2022-09-13T03:06:22.532Z,16.88
2022-09-13T03:06:55.270Z,16.88
2022-09-13T03:07:26.775Z,16.88
2022-09-13T03:07:51.845Z,16.88
2022-09-13T03:08:12.300Z,16.88
2022-09-13T03:08:46.754Z,16.88
2022-09-13T03:09:18.698Z,16.88
2022-09-13T03:09:51.944Z,16.88
2022-09-13T03:10:23.627Z,16.77
2022-09-13T03:10:54.784Z,16.77
2022-09-13T03:11:26.633Z,16.77
2022-09-13T03:11:49.273Z,16.77
2022-09-13T03:12:11.608Z,16.77
2022-09-13T03:12:47.513Z,16.72
2022-09-13T03:13:18.687Z,16.72
2022-09-13T03:13:52.731Z,16.72
2022-09-13T03:14:22.511Z,16.72
2022-09-13T03:14:56.805Z,16.72
2022-09-13T03:15:26.662Z,16.72
2022-09-13T03:15:49.138Z,16.72
2022-09-13T03:16:11.441Z,16.72
2022-09-13T03:16:47.206Z,16.72
2022-09-13T03:17:18.593Z,16.72
2022-09-13T03:17:53.298Z,16.61
2022-09-13T03:18:23.600Z,16.61
2022-09-13T03:18:54.620Z,16.61
2022-09-13T03:19:27.407Z,16.61
2022-09-13T03:19:50.030Z,16.61
2022-09-13T03:20:13.828Z,16.61
2022-09-13T03:20:46.482Z,16.61
2022-09-13T03:21:18.716Z,16.61
2022-09-13T03:21:50.668Z,16.61
2022-09-13T03:22:22.463Z,16.50
2022-09-13T03:22:54.477Z,16.50
2022-09-13T03:23:26.631Z,16.50
2022-09-13T03:23:49.217Z,16.50
2022-09-13T03:24:11.855Z,16.50
2022-09-13T03:24:46.669Z,16.50
2022-09-13T03:25:18.716Z,16.50
2022-09-13T03:25:50.896Z,16.50
2022-09-13T03:26:22.905Z,16.50
2022-09-13T03:26:54.717Z,16.50
2022-09-13T03:27:26.893Z,16.61
2022-09-13T03:27:49.726Z,16.61
2022-09-13T03:28:12.157Z,16.61
2022-09-13T03:28:46.632Z,16.61
2022-09-13T03:29:18.721Z,16.61
2022-09-13T03:29:51.103Z,16.61
2022-09-13T03:30:23.158Z,16.72
2022-09-13T03:30:54.898Z,16.72
2022-09-13T03:31:26.990Z,16.72
2022-09-13T03:31:49.588Z,16.77
2022-09-13T03:32:12.346Z,16.77
2022-09-13T03:32:46.938Z,16.77
2022-09-13T03:33:19.052Z,16.77
2022-09-13T03:33:50.676Z,16.77
2022-09-13T03:34:22.940Z,16.77
2022-09-13T03:34:55.629Z,16.77
2022-09-13T03:35:26.486Z,16.77
2022-09-13T03:35:49.272Z,16.77
2022-09-13T03:36:11.885Z,16.77
2022-09-13T03:36:47.286Z,16.88
2022-09-13T03:37:18.503Z,16.88
2022-09-13T03:37:51.989Z,16.88
2022-09-13T03:38:22.524Z,16.88
2022-09-13T03:38:55.930Z,16.72
2022-09-13T03:39:26.791Z,16.72
2022-09-13T03:39:49.411Z,16.61
2022-09-13T03:40:12.382Z,16.50
2022-09-13T03:40:47.108Z,16.50
2022-09-13T03:41:21.147Z,16.50
2022-09-13T03:41:50.583Z,16.50
2022-09-13T03:42:24.150Z,16.50
2022-09-13T03:42:57.074Z,16.50
2022-09-13T03:43:26.730Z,16.50
2022-09-13T03:43:49.545Z,16.50
2022-09-13T03:44:11.809Z,16.38
2022-09-13T03:44:47.281Z,16.27
2022-09-13T03:45:18.590Z,16.27
2022-09-13T03:45:50.494Z,16.27
2022-09-13T03:46:22.534Z,16.22
2022-09-13T03:46:57.195Z,16.22
2022-09-13T03:47:26.971Z,16.11
2022-09-13T03:47:49.600Z,16.11
2022-09-13T03:48:12.558Z,16.11
2022-09-13T03:48:46.591Z,16.11
2022-09-13T03:49:18.940Z,16.11
2022-09-13T03:49:50.497Z,16.11
2022-09-13T03:50:22.460Z,16.11
2022-09-13T03:50:54.460Z,16.11
2022-09-13T03:51:26.584Z,16.11
2022-09-13T03:51:49.417Z,16.00
2022-09-13T03:52:11.799Z,16.00
2022-09-13T03:52:46.699Z,16.00
2022-09-13T03:53:18.629Z,16.00
2022-09-13T03:53:50.608Z,16.00
2022-09-13T03:54:22.495Z,16.00
2022-09-13T03:54:55.186Z,16.00
2022-09-13T03:55:26.919Z,16.00
2022-09-13T03:55:51.059Z,16.00
2022-09-13T03:56:12.130Z,16.00
2022-09-13T03:56:47.800Z,16.00
2022-09-13T03:57:18.474Z,16.00
2022-09-13T03:57:50.861Z,16.00
2022-09-13T03:58:22.493Z,16.00
2022-09-13T03:58:54.708Z,16.00
2022-09-13T03:59:26.587Z,15.88
2022-09-13T03:59:49.393Z,15.88
2022-09-13T04:00:11.688Z,15.88
2022-09-13T04:00:46.751Z,15.88
2022-09-13T04:01:18.463Z,15.88
2022-09-13T04:01:50.829Z,15.88
2022-09-13T04:02:22.849Z,15.88
2022-09-13T04:02:55.165Z,15.88
2022-09-13T04:03:27.370Z,15.77
2022-09-13T04:03:53.322Z,15.77
2022-09-13T04:04:13.407Z,15.77
2022-09-13T04:04:47.133Z,15.77
2022-09-13T04:05:19.004Z,15.77
2022-09-13T04:05:50.583Z,15.88
2022-09-13T04:06:23.590Z,16.00
2022-09-13T04:06:54.859Z,16.11
2022-09-13T04:07:26.721Z,16.11
2022-09-13T04:07:49.527Z,16.22
2022-09-13T04:08:11.997Z,16.27
2022-09-13T04:08:47.382Z,16.38
2022-09-13T04:09:18.337Z,16.50
2022-09-13T04:09:50.454Z,16.50
2022-09-13T04:10:22.881Z,16.61
2022-09-13T04:10:55.242Z,16.72
2022-09-13T04:11:26.693Z,16.77
2022-09-13T04:11:49.395Z,16.77
2022-09-13T04:12:12.290Z,16.88
2022-09-13T04:12:46.481Z,17.00
2022-09-13T04:13:18.590Z,17.00
2022-09-13T04:13:50.552Z,17.11
2022-09-13T04:14:23.316Z,17.11
2022-09-13T04:14:54.459Z,17.22
2022-09-13T04:15:27.525Z,17.22
2022-09-13T04:15:50.147Z,17.22
2022-09-13T04:16:12.909Z,17.22
2022-09-13T04:16:47.226Z,17.22
2022-09-13T04:17:18.500Z,17.22
2022-09-13T04:17:51.413Z,17.22
2022-09-13T04:18:22.692Z,17.22
2022-09-13T04:18:54.909Z,17.22
2022-09-13T04:19:26.792Z,17.27
2022-09-13T04:19:49.323Z,17.27
2022-09-13T04:20:12.799Z,17.27
2022-09-13T04:20:46.336Z,17.27
2022-09-13T04:21:18.559Z,17.27
2022-09-13T04:21:50.878Z,17.27
2022-09-13T04:22:22.725Z,17.38
2022-09-13T04:22:54.600Z,17.38
2022-09-13T04:23:26.977Z,17.38
2022-09-13T04:23:49.546Z,17.38
2022-09-13T04:24:12.057Z,17.50
2022-09-13T04:24:46.606Z,17.50
2022-09-13T04:25:18.579Z,17.50
2022-09-13T04:25:51.342Z,17.50
2022-09-13T04:26:22.404Z,17.50
2022-09-13T04:26:54.653Z,17.50
2022-09-13T04:27:26.643Z,17.50
2022-09-13T04:27:49.310Z,17.50
2022-09-13T04:28:11.986Z,17.50
2022-09-13T04:28:46.546Z,17.50
2022-09-13T04:29:19.246Z,17.50
2022-09-13T04:29:50.639Z,17.50
2022-09-13T04:30:23.678Z,17.61
2022-09-13T04:30:54.673Z,17.61
2022-09-13T04:31:26.830Z,17.61
2022-09-13T04:31:49.543Z,17.61
2022-09-13T04:32:11.866Z,17.61
2022-09-13T04:32:46.495Z,17.61
2022-09-13T04:33:18.415Z,17.61
2022-09-13T04:33:50.958Z,17.61
2022-09-13T04:34:22.697Z,17.61
2022-09-13T04:34:54.814Z,17.61
2022-09-13T04:35:26.833Z,17.61
2022-09-13T04:35:49.553Z,17.61
2022-09-13T04:36:12.567Z,17.61
2022-09-13T04:36:46.868Z,17.61
2022-09-13T04:37:18.816Z,17.61
2022-09-13T04:37:51.256Z,17.61
2022-09-13T04:38:22.469Z,17.61
2022-09-13T04:38:54.970Z,17.61
2022-09-13T04:39:26.777Z,17.72
2022-09-13T04:39:49.392Z,17.72
2022-09-13T04:40:11.851Z,17.72
2022-09-13T04:40:47.362Z,17.72
2022-09-13T04:41:21.035Z,17.77
2022-09-13T04:41:50.896Z,17.77
2022-09-13T04:42:23.922Z,17.77
2022-09-13T04:42:54.634Z,17.77
2022-09-13T04:43:26.507Z,17.77
2022-09-13T04:43:49.222Z,17.77
2022-09-13T04:44:11.757Z,17.77
2022-09-13T04:44:46.464Z,17.77
2022-09-13T04:45:18.713Z,17.77
2022-09-13T04:45:50.417Z,17.77
2022-09-13T04:46:22.392Z,17.77
2022-09-13T04:46:54.576Z,17.77
2022-09-13T04:47:27.504Z,17.77
2022-09-13T04:47:50.020Z,17.77
2022-09-13T04:48:12.654Z,17.77
2022-09-13T04:48:46.560Z,17.77
2022-09-13T04:49:18.721Z,17.77
2022-09-13T04:49:50.986Z,17.77
2022-09-13T04:50:22.484Z,17.72
2022-09-13T04:50:54.897Z,17.72
2022-09-13T04:51:26.488Z,17.72
2022-09-13T04:51:49.149Z,17.72
2022-09-13T04:52:12.030Z,17.72
2022-09-13T04:52:46.439Z,17.72
2022-09-13T04:53:18.804Z,17.72
2022-09-13T04:53:50.684Z,17.72
2022-09-13T04:54:22.429Z,17.72
2022-09-13T04:54:54.586Z,17.72
2022-09-13T04:55:27.335Z,17.72
2022-09-13T04:55:50.245Z,17.72
2022-09-13T04:56:12.523Z,17.72
2022-09-13T04:56:47.297Z,17.72
2022-09-13T04:57:18.496Z,17.72
2022-09-13T04:57:51.479Z,17.72
2022-09-13T04:58:22.533Z,17.72
2022-09-13T04:58:54.457Z,17.72
2022-09-13T04:59:26.484Z,17.72
2022-09-13T04:59:49.249Z,17.72
2022-09-13T05:00:11.961Z,17.72
2022-09-13T05:00:46.435Z,17.72
2022-09-13T05:01:18.849Z,17.72
2022-09-13T05:01:50.773Z,17.72
2022-09-13T05:02:23.233Z,17.72
2022-09-13T05:02:54.658Z,17.72
2022-09-13T05:03:27.387Z,17.72
2022-09-13T05:03:49.992Z,17.61
2022-09-13T05:04:12.964Z,17.61
2022-09-13T05:04:47.921Z,17.72
2022-09-13T05:05:18.530Z,17.72
2022-09-13T05:05:51.155Z,17.72
2022-09-13T05:06:22.431Z,17.72
2022-09-13T05:06:55.391Z,17.72
2022-09-13T05:07:26.706Z,17.72
2022-09-13T05:07:49.124Z,17.72
2022-09-13T05:08:12.168Z,17.72
2022-09-13T05:08:46.553Z,17.72
2022-09-13T05:09:18.446Z,17.72
2022-09-13T05:09:50.440Z,17.72
2022-09-13T05:10:22.940Z,17.72
2022-09-13T05:10:54.966Z,17.77
2022-09-13T05:11:26.691Z,17.77
2022-09-13T05:11:49.389Z,17.77
2022-09-13T05:12:12.015Z,17.77
2022-09-13T05:12:46.984Z,17.77
2022-09-13T05:13:18.523Z,17.77
2022-09-13T05:13:51.305Z,17.77
2022-09-13T05:14:22.427Z,17.77
2022-09-13T05:14:56.352Z,17.77
2022-09-13T05:15:26.914Z,17.77
2022-09-13T05:15:49.732Z,17.77
2022-09-13T05:16:12.081Z,17.77
2022-09-13T05:16:46.935Z,17.77
2022-09-13T05:17:18.893Z,17.77
2022-09-13T05:17:50.993Z,17.77
2022-09-13T05:18:23.231Z,17.77
2022-09-13T05:18:54.765Z,17.88
2022-09-13T05:19:26.554Z,17.88
2022-09-13T05:19:49.201Z,17.88
2022-09-13T05:20:11.560Z,17.88
2022-09-13T05:20:48.005Z,17.88
2022-09-13T05:21:18.571Z,17.88
2022-09-13T05:21:50.487Z,17.88
2022-09-13T05:22:22.479Z,17.88
2022-09-13T05:22:54.622Z,17.88
2022-09-13T05:23:28.011Z,17.88
2022-09-13T05:23:49.455Z,17.88
2022-09-13T05:24:12.140Z,17.88
2022-09-13T05:24:46.610Z,17.88
2022-09-13T05:25:21.095Z,17.88
2022-09-13T05:25:50.996Z,17.88
2022-09-13T05:26:23.077Z,17.88
2022-09-13T05:26:54.770Z,17.88
2022-09-13T05:27:27.400Z,17.88
2022-09-13T05:27:49.941Z,17.88
2022-09-13T05:28:12.728Z,17.88
2022-09-13T05:28:47.043Z,17.88
2022-09-13T05:29:18.550Z,17.88
2022-09-13T05:29:52.773Z,17.88
2022-09-13T05:30:22.449Z,17.88
2022-09-13T05:30:54.809Z,17.77
2022-09-13T05:31:26.787Z,17.77
2022-09-13T05:31:49.267Z,17.77
2022-09-13T05:32:13.424Z,17.77
2022-09-13T05:32:46.364Z,17.77
2022-09-13T05:33:19.509Z,17.77
2022-09-13T05:33:50.587Z,17.77
2022-09-13T05:34:22.531Z,17.77
2022-09-13T05:34:54.913Z,17.72
2022-09-13T05:35:27.765Z,17.72
2022-09-13T05:35:50.469Z,17.72
2022-09-13T05:36:13.756Z,17.72
2022-09-13T05:36:50.469Z,17.72
2022-09-13T05:37:18.421Z,17.72
2022-09-13T05:37:53.053Z,17.61
2022-09-13T05:38:22.591Z,17.61
2022-09-13T05:39:12.108Z,17.61
2022-09-13T05:39:33.847Z,17.61
2022-09-13T05:40:10.248Z,17.61
2022-09-13T05:40:30.811Z,17.61
2022-09-13T05:40:53.184Z,17.61
2022-09-13T05:41:17.247Z,17.61
2022-09-13T05:41:50.787Z,17.61
2022-09-13T05:42:25.122Z,17.61
2022-09-13T05:42:54.823Z,17.61
2022-09-13T05:43:27.294Z,17.61
2022-09-13T05:43:50.063Z,17.61
2022-09-13T05:44:15.004Z,17.61
2022-09-13T05:44:55.321Z,17.61
2022-09-13T05:45:17.804Z,17.61
2022-09-13T05:45:50.389Z,17.61
2022-09-13T05:46:22.573Z,17.72
2022-09-13T05:46:54.365Z,17.72
2022-09-13T05:47:26.452Z,17.72
2022-09-13T05:47:49.204Z,17.72
2022-09-13T05:48:11.446Z,17.72
2022-09-13T05:48:46.502Z,17.61
2022-09-13T05:49:18.877Z,17.61
2022-09-13T05:50:09.324Z,17.61
2022-09-13T05:50:45.059Z,17.61
2022-09-13T05:51:01.148Z,17.61
2022-09-13T05:51:23.563Z,17.61
2022-09-13T05:51:54.602Z,17.61
2022-09-13T05:52:30.638Z,17.61
2022-09-13T05:52:53.245Z,17.61
2022-09-13T05:53:17.026Z,17.61
2022-09-13T05:53:50.418Z,17.61
2022-09-13T05:54:22.572Z,17.61
2022-09-13T05:54:54.443Z,17.61
2022-09-13T05:55:26.458Z,17.61
2022-09-13T05:55:49.237Z,17.61
2022-09-13T05:56:15.819Z,17.50
2022-09-13T05:56:46.604Z,17.50
2022-09-13T05:57:18.321Z,17.50
2022-09-13T05:57:50.484Z,17.50
2022-09-13T05:58:22.397Z,17.50
2022-09-13T05:58:54.493Z,17.61
2022-09-13T05:59:26.341Z,17.61
2022-09-13T05:59:49.843Z,17.50
2022-09-13T06:00:12.422Z,17.50
2022-09-13T06:00:46.557Z,17.61
2022-09-13T06:01:18.543Z,17.61
2022-09-13T06:01:50.572Z,17.61
2022-09-13T06:02:22.588Z,17.61
2022-09-13T06:02:54.509Z,17.72
2022-09-13T06:03:26.656Z,17.72
2022-09-13T06:03:49.316Z,17.72
2022-09-13T06:04:14.283Z,17.77
2022-09-13T06:04:46.502Z,17.77
2022-09-13T06:05:19.062Z,17.77
2022-09-13T06:05:50.328Z,17.77
2022-09-13T06:06:22.487Z,17.77
2022-09-13T06:06:54.412Z,17.77
2022-09-13T06:07:26.329Z,17.77
2022-09-13T06:07:50.365Z,17.77
2022-09-13T06:08:12.602Z,17.77
2022-09-13T06:08:46.374Z,17.88
2022-09-13T06:09:19.830Z,17.88
2022-09-13T06:09:50.561Z,17.88
2022-09-13T06:10:22.426Z,17.88
2022-09-13T06:10:54.525Z,17.88
2022-09-13T06:11:26.667Z,17.88
2022-09-13T06:11:48.916Z,17.88
2022-09-13T06:12:11.487Z,17.88
2022-09-13T06:12:46.471Z,17.88
2022-09-13T06:13:20.463Z,17.88
2022-09-13T06:13:50.563Z,17.88
2022-09-13T06:14:22.662Z,18.00
2022-09-13T06:14:54.695Z,18.00
2022-09-13T06:15:26.365Z,18.00
2022-09-13T06:15:49.808Z,18.00
2022-09-13T06:16:12.199Z,18.00
2022-09-13T06:16:46.450Z,18.00
2022-09-13T06:17:20.974Z,18.00
2022-09-13T06:17:50.247Z,18.00
2022-09-13T06:18:22.558Z,18.00
2022-09-13T06:18:54.535Z,18.00
2022-09-13T06:19:26.466Z,17.88
2022-09-13T06:19:49.076Z,17.88
2022-09-13T06:20:11.379Z,17.88
2022-09-13T06:20:46.452Z,17.88
2022-09-13T06:21:24.659Z,17.88
2022-09-13T06:21:50.926Z,17.88
2022-09-13T06:22:22.858Z,17.88
2022-09-13T06:22:54.302Z,18.00
2022-09-13T06:23:26.464Z,18.00
2022-09-13T06:23:49.219Z,17.88
2022-09-13T06:24:11.874Z,17.88
2022-09-13T06:24:46.476Z,17.88
2022-09-13T06:25:18.373Z,17.88
2022-09-13T06:25:52.774Z,17.88
2022-09-13T06:26:22.620Z,18.00
2022-09-13T06:26:54.337Z,18.00
2022-09-13T06:27:26.409Z,18.00
2022-09-13T06:27:50.243Z,18.00
2022-09-13T06:28:11.592Z,18.00
2022-09-13T06:28:46.446Z,18.00